createdAt,value
2019-05-30T00:00:03.693Z,99.90
2019-05-30T00:02:16.714Z,99.90
2019-05-30T00:04:43.069Z,99.90
2019-05-30T00:07:11.116Z,99.90
2019-05-30T00:09:37.232Z,99.90
2019-05-30T00:12:04.872Z,99.90
2019-05-30T00:14:31.433Z,99.90
2019-05-30T00:16:58.725Z,99.90
2019-05-30T00:19:25.158Z,99.90
2019-05-30T00:21:51.339Z,99.90
2019-05-30T00:24:19.050Z,99.90
2019-05-30T00:26:45.256Z,99.90
2019-05-30T00:29:11.433Z,99.90
2019-05-30T00:31:37.602Z,99.90
2019-05-30T00:34:04.292Z,99.90
2019-05-30T00:36:30.527Z,99.90
2019-05-30T00:38:57.672Z,99.90
2019-05-30T00:41:23.911Z,99.90
2019-05-30T00:43:50.087Z,99.90
2019-05-30T00:46:16.260Z,99.90
2019-05-30T00:48:42.471Z,99.90
2019-05-30T00:51:08.641Z,99.90
2019-05-30T00:53:34.818Z,99.90
2019-05-30T00:56:01.475Z,99.90
2019-05-30T00:58:29.013Z,99.90
2019-05-30T01:00:55.187Z,99.90
2019-05-30T01:03:22.787Z,99.90
2019-05-30T01:05:48.963Z,99.90
2019-05-30T01:08:15.142Z,99.90
2019-05-30T01:10:41.555Z,99.90
2019-05-30T01:13:07.719Z,99.90
2019-05-30T01:15:33.933Z,99.90
2019-05-30T01:18:01.082Z,99.90
2019-05-30T01:20:27.534Z,99.90
2019-05-30T01:22:53.715Z,99.90
2019-05-30T01:25:20.640Z,99.90
2019-05-30T01:27:46.813Z,99.90
2019-05-30T01:30:13.686Z,99.90
2019-05-30T01:32:40.009Z,99.90
2019-05-30T01:35:06.281Z,99.90
2019-05-30T01:37:32.620Z,99.90
2019-05-30T01:39:59.751Z,99.90
2019-05-30T01:42:26.234Z,99.90
2019-05-30T01:44:52.442Z,99.90
2019-05-30T01:47:18.869Z,99.90
2019-05-30T01:49:45.047Z,99.90
2019-05-30T01:52:11.235Z,99.90
2019-05-30T01:54:37.550Z,99.90
2019-05-30T01:57:04.680Z,99.90
2019-05-30T01:59:31.046Z,99.90
2019-05-30T02:01:57.248Z,99.90
2019-05-30T02:04:23.428Z,99.90
2019-05-30T02:06:49.807Z,99.90
2019-05-30T02:09:16.037Z,99.90
2019-05-30T02:11:42.411Z,99.90
2019-05-30T02:14:09.796Z,99.90
2019-05-30T02:16:36.263Z,99.90
2019-05-30T02:19:03.635Z,99.90
2019-05-30T02:21:29.907Z,99.90
2019-05-30T02:23:56.097Z,99.90
2019-05-30T02:26:22.626Z,99.90
2019-05-30T02:28:48.794Z,99.90
2019-05-30T02:31:15.172Z,99.90
2019-05-30T02:33:41.351Z,99.90
2019-05-30T02:36:08.476Z,99.90
2019-05-30T02:38:35.752Z,99.90
2019-05-30T02:41:03.342Z,99.90
2019-05-30T02:43:30.300Z,99.90
2019-05-30T02:45:56.796Z,99.90
2019-05-30T02:48:22.977Z,99.90
2019-05-30T02:50:49.156Z,99.90
2019-05-30T02:53:15.464Z,99.90
2019-05-30T02:55:42.034Z,99.90
2019-05-30T02:58:09.762Z,99.90
2019-05-30T03:00:36.317Z,99.90
2019-05-30T03:03:04.032Z,99.90
2019-05-30T03:05:32.399Z,99.90
2019-05-30T03:07:58.731Z,99.90
2019-05-30T03:10:25.003Z,99.90
2019-05-30T03:12:51.171Z,99.90
2019-05-30T03:15:17.468Z,99.90
2019-05-30T03:17:43.642Z,99.90
2019-05-30T03:20:20.613Z,99.90
2019-05-30T03:22:38.057Z,99.90
2019-05-30T03:25:05.660Z,99.90
2019-05-30T03:27:32.771Z,99.90
2019-05-30T03:29:59.084Z,99.90
2019-05-30T03:34:53.358Z,99.90
2019-05-30T03:37:28.575Z,99.90
2019-05-30T03:39:47.707Z,99.90
2019-05-30T03:42:15.772Z,99.90
2019-05-30T03:44:41.984Z,99.90
2019-05-30T03:47:09.219Z,99.90
2019-05-30T03:49:37.934Z,99.90
2019-05-30T03:52:05.028Z,99.90
2019-05-30T03:54:32.117Z,99.90
2019-05-30T03:57:02.097Z,99.90
2019-05-30T03:59:30.921Z,99.90
2019-05-30T04:02:01.028Z,99.90
2019-05-30T04:04:30.014Z,99.90
2019-05-30T04:07:00.030Z,99.90
2019-05-30T04:09:26.208Z,99.90
2019-05-30T04:11:56.601Z,99.90
2019-05-30T04:14:23.615Z,99.90
2019-05-30T04:16:49.798Z,99.90
2019-05-30T04:19:17.742Z,99.90
2019-05-30T04:21:43.983Z,99.90
2019-05-30T04:24:11.901Z,99.90
2019-05-30T04:26:38.131Z,99.90
2019-05-30T04:29:04.691Z,99.90
2019-05-30T04:31:30.820Z,99.90
2019-05-30T04:33:57.152Z,99.90
2019-05-30T04:36:23.502Z,99.90
2019-05-30T04:38:49.767Z,99.90
2019-05-30T04:41:18.439Z,99.90
2019-05-30T04:43:43.952Z,99.90
2019-05-30T04:46:10.843Z,99.90
2019-05-30T04:48:38.104Z,99.90
2019-05-30T04:51:04.302Z,99.90
2019-05-30T04:53:30.574Z,99.90
2019-05-30T04:55:56.784Z,99.90
2019-05-30T04:58:24.276Z,99.90
2019-05-30T05:00:50.774Z,99.90
2019-05-30T05:03:23.239Z,99.90
2019-05-30T05:05:44.953Z,99.90
2019-05-30T05:08:11.755Z,99.90
2019-05-30T05:10:38.006Z,99.90
2019-05-30T05:13:04.211Z,99.90
2019-05-30T05:15:30.703Z,99.90
2019-05-30T05:17:56.858Z,99.90
2019-05-30T05:20:23.589Z,99.90
2019-05-30T05:22:49.834Z,99.90
2019-05-30T05:25:17.354Z,99.90
2019-05-30T05:27:43.807Z,99.90
2019-05-30T05:30:10.343Z,99.90
2019-05-30T05:32:36.631Z,99.90
2019-05-30T05:35:05.167Z,99.90
2019-05-30T05:37:31.347Z,99.90
2019-05-30T05:39:57.630Z,99.90
2019-05-30T05:42:28.363Z,99.90
2019-05-30T05:44:52.110Z,99.90
2019-05-30T05:47:18.517Z,99.90
2019-05-30T05:49:45.061Z,99.90
2019-05-30T05:52:12.142Z,99.90
2019-05-30T05:54:38.549Z,99.90
2019-05-30T05:57:04.755Z,99.90
2019-05-30T05:59:31.102Z,99.90
2019-05-30T06:01:57.219Z,99.90
2019-05-30T06:04:23.410Z,99.90
2019-05-30T06:06:49.590Z,99.90
2019-05-30T06:09:16.396Z,99.90
2019-05-30T06:11:43.079Z,99.90
2019-05-30T06:14:09.247Z,99.90
2019-05-30T06:16:35.424Z,99.90
2019-05-30T06:19:01.699Z,99.90
2019-05-30T06:21:27.879Z,99.90
2019-05-30T06:23:54.055Z,99.90
2019-05-30T06:26:20.263Z,99.90
2019-05-30T06:28:46.551Z,99.90
2019-05-30T06:31:13.731Z,99.90
2019-05-30T06:33:39.939Z,99.90
2019-05-30T06:36:06.120Z,99.90
2019-05-30T06:38:32.300Z,99.90
2019-05-30T06:40:58.503Z,99.90
2019-05-30T06:43:26.009Z,99.90
2019-05-30T06:45:52.517Z,99.90
2019-05-30T06:48:18.759Z,99.90
2019-05-30T06:50:45.040Z,99.90
2019-05-30T06:53:11.321Z,99.90
2019-05-30T06:55:37.511Z,99.90
2019-05-30T06:58:03.696Z,99.90
2019-05-30T07:00:30.287Z,99.90
2019-05-30T07:02:56.772Z,99.90
2019-05-30T07:05:24.294Z,99.90
2019-05-30T07:07:51.270Z,99.90
2019-05-30T07:10:17.874Z,99.90
2019-05-30T07:12:44.056Z,99.90
2019-05-30T07:15:10.336Z,99.90
2019-05-30T07:17:36.655Z,99.90
2019-05-30T07:20:04.423Z,99.90
2019-05-30T07:22:31.794Z,99.90
2019-05-30T07:24:58.211Z,99.90
2019-05-30T07:27:24.399Z,99.90
2019-05-30T07:29:50.671Z,99.90
2019-05-30T07:32:17.239Z,99.90
2019-05-30T07:34:45.860Z,99.90
2019-05-30T07:37:11.410Z,99.90
2019-05-30T07:39:37.756Z,99.90
2019-05-30T07:42:06.445Z,99.90
2019-05-30T07:44:32.798Z,99.90
2019-05-30T07:46:59.470Z,99.90
2019-05-30T07:49:26.270Z,99.90
2019-05-30T07:51:52.732Z,99.90
2019-05-30T07:54:19.179Z,99.90
2019-05-30T07:56:45.353Z,99.90
2019-05-30T07:59:11.530Z,99.90
2019-05-30T08:01:39.407Z,99.90
2019-05-30T08:04:05.712Z,99.90
2019-05-30T08:06:31.891Z,99.90
2019-05-30T08:08:58.095Z,99.90
2019-05-30T08:11:24.262Z,99.90
2019-05-30T08:13:50.435Z,99.90
2019-05-30T08:16:16.677Z,99.90
2019-05-30T08:18:42.888Z,99.90
2019-05-30T08:21:09.031Z,99.90
2019-05-30T08:23:36.307Z,99.90
2019-05-30T08:26:03.033Z,99.90
2019-05-30T08:28:30.249Z,99.90
2019-05-30T08:30:57.016Z,99.90
2019-05-30T08:33:23.562Z,99.90
2019-05-30T08:35:50.454Z,99.90
2019-05-30T08:38:16.854Z,99.90
2019-05-30T08:40:43.018Z,99.90
2019-05-30T08:43:09.195Z,99.90
2019-05-30T08:45:36.063Z,99.90
2019-05-30T08:48:02.471Z,99.90
2019-05-30T08:50:29.981Z,99.90
2019-05-30T08:52:56.434Z,99.90
2019-05-30T08:55:22.705Z,99.90
2019-05-30T08:57:50.111Z,99.90
2019-05-30T09:00:16.506Z,99.90
2019-05-30T09:02:43.003Z,99.90
2019-05-30T09:05:09.375Z,99.90
2019-05-30T09:07:36.439Z,99.90
2019-05-30T09:10:05.472Z,99.90
2019-05-30T09:12:31.651Z,99.90
2019-05-30T09:14:57.862Z,99.90
2019-05-30T09:17:24.043Z,99.90
2019-05-30T09:19:50.218Z,99.90
2019-05-30T09:22:16.426Z,99.90
2019-05-30T09:24:43.842Z,99.90
2019-05-30T09:27:10.390Z,99.90
2019-05-30T09:29:37.819Z,99.90
2019-05-30T09:32:04.880Z,99.90
2019-05-30T09:34:31.643Z,99.90
2019-05-30T09:36:57.952Z,99.90
2019-05-30T09:39:24.226Z,99.90
2019-05-30T09:41:50.395Z,99.90
2019-05-30T09:44:16.602Z,99.90
2019-05-30T09:46:44.147Z,99.90
2019-05-30T09:49:10.465Z,99.90
2019-05-30T09:51:36.777Z,99.90
2019-05-30T09:54:03.339Z,99.90
2019-05-30T09:56:29.616Z,99.90
2019-05-30T09:58:55.820Z,99.90
2019-05-30T10:01:21.999Z,99.90
2019-05-30T10:03:48.512Z,99.90
2019-05-30T10:06:28.372Z,99.90
2019-05-30T10:08:44.310Z,99.90
2019-05-30T10:11:10.854Z,99.90
2019-05-30T10:13:37.518Z,99.90
2019-05-30T10:16:03.683Z,99.90
2019-05-30T10:18:29.859Z,99.90
2019-05-30T10:20:57.114Z,99.90
2019-05-30T10:23:23.539Z,99.90
2019-05-30T10:25:51.122Z,99.90
2019-05-30T10:28:17.414Z,99.90
2019-05-30T10:30:43.592Z,99.90
2019-05-30T10:33:09.767Z,99.90
2019-05-30T10:35:36.448Z,99.90
2019-05-30T10:38:02.818Z,99.90
2019-05-30T10:40:32.077Z,99.90
2019-05-30T10:42:57.283Z,99.90
2019-05-30T10:45:25.667Z,99.90
2019-05-30T10:47:51.848Z,99.90
2019-05-30T10:50:18.253Z,99.90
2019-05-30T10:52:45.353Z,99.90
2019-05-30T10:55:11.616Z,99.90
2019-05-30T10:57:38.032Z,99.90
2019-05-30T11:00:09.564Z,99.90
2019-05-30T11:02:35.491Z,99.90
2019-05-30T11:05:05.019Z,99.90
2019-05-30T11:07:35.010Z,99.90
2019-05-30T11:10:05.007Z,99.90
2019-05-30T11:12:31.203Z,99.90
2019-05-30T11:14:57.873Z,99.90
2019-05-30T11:17:24.094Z,99.90
2019-05-30T11:19:51.696Z,99.90
2019-05-30T11:22:18.238Z,99.90
2019-05-30T11:24:44.438Z,99.90
2019-05-30T11:27:10.719Z,99.90
2019-05-30T11:29:36.898Z,99.90
2019-05-30T11:32:03.170Z,99.90
2019-05-30T11:34:29.378Z,99.90
2019-05-30T11:36:57.161Z,99.90
2019-05-30T11:39:23.486Z,99.90
2019-05-30T11:41:49.691Z,99.90
2019-05-30T11:44:15.960Z,99.90
2019-05-30T11:46:42.138Z,99.90
2019-05-30T11:49:08.374Z,99.90
2019-05-30T11:51:34.554Z,99.90
2019-05-30T11:54:01.192Z,99.90
2019-05-30T11:56:27.538Z,99.90
2019-05-30T11:58:53.970Z,99.90
2019-05-30T12:01:20.436Z,99.90
2019-05-30T12:03:46.641Z,99.90
2019-05-30T12:06:12.818Z,99.90
2019-05-30T12:08:39.005Z,99.90
2019-05-30T12:11:05.335Z,99.90
2019-05-30T12:13:31.691Z,99.90
2019-05-30T12:15:57.851Z,99.90
2019-05-30T12:18:24.444Z,99.90
2019-05-30T12:20:51.684Z,99.90
2019-05-30T12:23:18.025Z,99.90
2019-05-30T12:25:44.222Z,99.90
2019-05-30T12:28:10.416Z,99.90
2019-05-30T12:30:36.585Z,99.90
2019-05-30T12:33:03.088Z,99.90
2019-05-30T12:35:29.262Z,99.90
2019-05-30T12:38:01.420Z,99.90
2019-05-30T12:40:24.672Z,99.90
2019-05-30T12:42:53.845Z,99.90
2019-05-30T12:45:18.977Z,99.90
2019-05-30T12:47:45.443Z,99.90
2019-05-30T12:50:11.827Z,99.90
2019-05-30T12:52:38.172Z,99.90
2019-05-30T12:55:06.782Z,99.90
2019-05-30T12:57:33.065Z,99.90
2019-05-30T12:59:59.238Z,99.90
2019-05-30T13:02:25.438Z,99.90
2019-05-30T13:04:51.783Z,99.90
2019-05-30T13:07:18.097Z,99.90
2019-05-30T13:09:44.267Z,99.90
2019-05-30T13:12:10.542Z,99.90
2019-05-30T13:14:36.719Z,99.90
2019-05-30T13:17:04.024Z,99.90
2019-05-30T13:19:30.785Z,99.90
2019-05-30T13:21:57.165Z,99.90
2019-05-30T13:24:23.511Z,99.90
2019-05-30T13:26:49.650Z,99.90
2019-05-30T13:29:15.918Z,99.90
2019-05-30T13:31:42.424Z,99.90
2019-05-30T13:34:08.667Z,99.90
2019-05-30T13:36:34.938Z,99.90
2019-05-30T13:39:03.374Z,99.90
2019-05-30T13:41:29.552Z,99.90
2019-05-30T13:43:55.792Z,99.90
2019-05-30T13:46:22.270Z,99.90
2019-05-30T13:48:48.541Z,99.90
2019-05-30T13:51:14.722Z,99.90
2019-05-30T13:53:41.044Z,99.90
2019-05-30T13:56:07.793Z,99.90
2019-05-30T13:58:34.106Z,99.90
2019-05-30T14:01:04.887Z,99.90
2019-05-30T14:03:28.434Z,99.90
2019-05-30T14:05:54.606Z,99.90
2019-05-30T14:08:20.815Z,99.90
2019-05-30T14:10:47.244Z,99.90
2019-05-30T14:13:13.382Z,99.90
2019-05-30T14:15:39.588Z,99.90
2019-05-30T14:18:07.138Z,99.90
2019-05-30T14:20:33.554Z,99.90
2019-05-30T14:23:01.163Z,99.90
2019-05-30T14:25:27.478Z,99.90
2019-05-30T14:27:53.660Z,99.90
2019-05-30T14:30:19.962Z,99.90
2019-05-30T14:32:46.336Z,99.90
2019-05-30T14:35:13.992Z,99.90
2019-05-30T14:37:40.536Z,99.90
2019-05-30T14:40:10.846Z,99.90
2019-05-30T14:42:37.454Z,99.90
2019-05-30T14:45:06.302Z,99.90
2019-05-30T14:47:32.846Z,99.90
2019-05-30T14:49:59.035Z,99.90
2019-05-30T14:52:25.230Z,99.90
2019-05-30T14:54:51.410Z,99.90
2019-05-30T14:57:17.782Z,99.90
2019-05-30T14:59:44.180Z,99.90
2019-05-30T15:02:11.282Z,99.90
2019-05-30T15:04:37.634Z,99.90
2019-05-30T15:07:03.899Z,99.90
2019-05-30T15:09:31.235Z,99.90
2019-05-30T15:11:57.413Z,99.90
2019-05-30T15:14:23.611Z,99.90
2019-05-30T15:16:49.795Z,99.90
2019-05-30T15:19:16.547Z,99.90
2019-05-30T15:21:42.883Z,99.90
2019-05-30T15:24:09.750Z,99.90
2019-05-30T15:26:36.131Z,99.90
2019-05-30T15:29:02.663Z,99.90
2019-05-30T15:31:28.851Z,99.90
2019-05-30T15:33:55.122Z,99.90
2019-05-30T15:36:21.322Z,99.90
2019-05-30T15:38:47.595Z,99.90
2019-05-30T15:41:15.280Z,99.90
2019-05-30T15:43:41.866Z,99.90
2019-05-30T15:46:08.063Z,99.90
2019-05-30T15:48:34.230Z,99.90
2019-05-30T15:51:00.575Z,99.90
2019-05-30T15:53:26.845Z,99.90
2019-05-30T15:55:53.115Z,99.90
2019-05-30T15:58:20.505Z,99.90
2019-05-30T16:00:46.914Z,99.90
2019-05-30T16:03:14.607Z,99.90
2019-05-30T16:05:41.093Z,99.90
2019-05-30T16:08:07.275Z,99.90
2019-05-30T16:10:36.646Z,98.80
2019-05-30T16:13:01.638Z,98.60
2019-05-30T16:15:27.870Z,98.30
2019-05-30T16:17:54.045Z,97.50
2019-05-30T16:20:20.344Z,97.30
2019-05-30T16:22:46.619Z,97.20
2019-05-30T16:25:13.754Z,96.90
2019-05-30T16:27:40.099Z,97.90
2019-05-30T16:30:07.687Z,97.70
2019-05-30T16:32:34.285Z,97.30
2019-05-30T16:35:00.496Z,96.50
2019-05-30T16:37:26.662Z,96.80
2019-05-30T16:40:05.322Z,97.40
2019-05-30T16:42:22.366Z,97.90
2019-05-30T16:44:48.606Z,97.90
2019-05-30T16:47:14.783Z,97.40
2019-05-30T16:49:41.102Z,96.30
2019-05-30T16:52:07.320Z,96.50
2019-05-30T16:54:33.595Z,96.20
2019-05-30T16:56:59.798Z,96.00
2019-05-30T16:59:26.901Z,96.40
2019-05-30T17:01:57.659Z,96.40
2019-05-30T17:04:21.302Z,97.60
2019-05-30T17:06:47.552Z,98.70
2019-05-30T17:09:15.088Z,99.50
2019-05-30T17:11:41.462Z,99.90
2019-05-30T17:14:07.750Z,99.90
2019-05-30T17:16:33.997Z,99.90
2019-05-30T17:19:00.202Z,99.90
2019-05-30T17:21:26.819Z,99.90
2019-05-30T17:23:53.046Z,99.90
2019-05-30T17:26:21.129Z,99.90
2019-05-30T17:28:47.446Z,99.90
2019-05-30T17:31:13.629Z,99.90
2019-05-30T17:33:39.826Z,99.90
2019-05-30T17:36:05.997Z,99.90
2019-05-30T17:38:32.174Z,99.90
2019-05-30T17:40:58.372Z,99.90
2019-05-30T17:43:25.090Z,99.90
2019-05-30T17:45:51.414Z,99.90
2019-05-30T17:48:17.737Z,99.90
2019-05-30T17:50:44.011Z,99.90
2019-05-30T17:53:10.199Z,99.90
2019-05-30T17:55:36.390Z,99.90
2019-05-30T17:58:02.773Z,99.90
2019-05-30T18:00:30.539Z,99.90
2019-05-30T18:02:57.251Z,99.90
2019-05-30T18:05:24.599Z,99.90
2019-05-30T18:07:50.886Z,99.90
2019-05-30T18:10:17.882Z,99.90
2019-05-30T18:12:44.064Z,99.90
2019-05-30T18:15:12.226Z,99.90
2019-05-30T18:17:38.438Z,99.90
2019-05-30T18:20:06.626Z,99.90
2019-05-30T18:22:32.794Z,99.90
2019-05-30T18:24:59.046Z,99.90
2019-05-30T18:27:25.922Z,99.90
2019-05-30T18:29:52.294Z,99.90
2019-05-30T18:32:18.506Z,99.90
2019-05-30T18:34:44.684Z,99.90
2019-05-30T18:37:10.963Z,99.90
2019-05-30T18:39:37.152Z,99.90
2019-05-30T18:42:03.522Z,99.90
2019-05-30T18:44:32.739Z,99.90
2019-05-30T18:46:57.884Z,99.90
2019-05-30T18:49:25.002Z,99.90
2019-05-30T18:51:51.334Z,99.90
2019-05-30T18:54:17.667Z,99.90
2019-05-30T18:56:43.843Z,99.90
2019-05-30T18:59:10.111Z,99.90
2019-05-30T19:01:37.756Z,99.90
2019-05-30T19:04:04.396Z,99.90
2019-05-30T19:06:31.948Z,99.90
2019-05-30T19:08:58.409Z,99.90
2019-05-30T19:11:29.598Z,99.90
2019-05-30T19:13:52.563Z,99.90
2019-05-30T19:16:18.849Z,99.90
2019-05-30T19:18:45.056Z,99.90
2019-05-30T19:21:11.198Z,99.90
2019-05-30T19:23:39.678Z,99.90
2019-05-30T19:26:05.507Z,99.90
2019-05-30T19:28:32.539Z,99.90
2019-05-30T19:30:58.880Z,99.90
2019-05-30T19:33:25.060Z,99.90
2019-05-30T19:35:51.225Z,99.90
2019-05-30T19:38:17.439Z,99.90
2019-05-30T19:40:43.608Z,99.90
2019-05-30T19:43:09.782Z,99.90
2019-05-30T19:45:36.287Z,99.90
2019-05-30T19:48:02.866Z,99.90
2019-05-30T19:50:29.031Z,99.90
2019-05-30T19:52:55.443Z,99.90
2019-05-30T19:55:21.802Z,99.90
2019-05-30T19:57:48.290Z,99.90
2019-05-30T20:00:14.630Z,99.90
2019-05-30T20:02:40.809Z,99.90
2019-05-30T20:05:07.792Z,99.90
2019-05-30T20:07:34.629Z,99.90
2019-05-30T20:10:02.127Z,99.90
2019-05-30T20:12:28.465Z,99.90
2019-05-30T20:14:54.655Z,99.90
2019-05-30T20:17:20.834Z,99.90
2019-05-30T20:19:47.030Z,99.90
2019-05-30T20:22:13.234Z,99.90
2019-05-30T20:24:40.512Z,99.90
2019-05-30T20:27:06.891Z,99.90
2019-05-30T20:29:33.258Z,99.90
2019-05-30T20:31:59.427Z,99.90
2019-05-30T20:34:25.603Z,99.90
2019-05-30T20:36:51.910Z,99.90
2019-05-30T20:39:18.095Z,99.90
2019-05-30T20:41:44.258Z,99.90
2019-05-30T20:44:10.562Z,99.90
2019-05-30T20:46:37.282Z,99.90
2019-05-30T20:49:03.547Z,99.90
2019-05-30T20:51:29.807Z,99.90
2019-05-30T20:53:55.922Z,99.90
2019-05-30T20:56:22.102Z,99.90
2019-05-30T20:58:48.308Z,99.90
2019-05-30T21:01:14.486Z,99.90
2019-05-30T21:03:41.741Z,99.90
2019-05-30T21:06:08.411Z,99.90
2019-05-30T21:08:35.485Z,99.90
2019-05-30T21:11:01.659Z,99.90
2019-05-30T21:13:30.267Z,99.90
2019-05-30T21:15:56.443Z,99.90
2019-05-30T21:18:22.615Z,99.90
2019-05-30T21:20:48.959Z,99.90
2019-05-30T21:23:15.235Z,99.90
2019-05-30T21:25:43.062Z,99.90
2019-05-30T21:28:09.780Z,99.90
2019-05-30T21:30:36.764Z,99.90
2019-05-30T21:33:03.343Z,99.90
2019-05-30T21:35:29.882Z,99.90
2019-05-30T21:37:56.227Z,99.90
2019-05-30T21:40:22.399Z,99.90
2019-05-30T21:43:04.331Z,99.90
2019-05-30T21:45:17.165Z,99.90
2019-05-30T21:47:44.748Z,99.90
2019-05-30T21:50:11.281Z,99.90
2019-05-30T21:52:37.462Z,99.90
2019-05-30T21:55:04.780Z,99.90
2019-05-30T21:57:30.968Z,99.90
2019-05-30T21:59:57.136Z,99.90
2019-05-30T22:02:23.310Z,99.90
2019-05-30T22:04:50.707Z,99.90
2019-05-30T22:07:17.312Z,99.90
2019-05-30T22:09:43.466Z,99.90
2019-05-30T22:12:09.775Z,99.90
2019-05-30T22:14:35.946Z,99.90
2019-05-30T22:17:02.129Z,99.90
2019-05-30T22:19:28.328Z,99.90
2019-05-30T22:21:54.611Z,99.90
2019-05-30T22:24:20.806Z,99.90
2019-05-30T22:26:48.235Z,99.90
2019-05-30T22:29:14.827Z,99.90
2019-05-30T22:31:42.410Z,99.90
2019-05-30T22:34:08.807Z,99.90
2019-05-30T22:36:34.991Z,99.90
2019-05-30T22:39:01.196Z,99.90
2019-05-30T22:41:27.491Z,99.90
2019-05-30T22:43:53.673Z,99.90
2019-05-30T22:46:20.051Z,99.90
2019-05-30T22:48:46.622Z,99.90
2019-05-30T22:51:12.799Z,99.90
2019-05-30T22:53:38.978Z,99.90
2019-05-30T22:56:05.684Z,99.90
2019-05-30T22:58:31.862Z,99.90
2019-05-30T23:00:58.042Z,99.90
2019-05-30T23:03:24.358Z,99.90
2019-05-30T23:05:51.503Z,99.90
2019-05-30T23:08:17.823Z,99.90
2019-05-30T23:10:44.027Z,99.90
2019-05-30T23:13:10.223Z,99.90
2019-05-30T23:15:36.382Z,99.90
2019-05-30T23:18:02.962Z,99.90
2019-05-30T23:20:29.135Z,99.90
2019-05-30T23:22:55.509Z,99.90
2019-05-30T23:25:21.829Z,99.90
2019-05-30T23:27:47.982Z,99.90
2019-05-30T23:30:14.254Z,99.90
2019-05-30T23:32:40.458Z,99.90
2019-05-30T23:35:06.845Z,99.90
2019-05-30T23:37:33.174Z,99.90
2019-05-30T23:39:59.433Z,99.90
2019-05-30T23:42:25.609Z,99.90
2019-05-30T23:44:51.786Z,99.90
2019-05-30T23:47:18.282Z,99.90
2019-05-30T23:49:45.650Z,99.90
2019-05-30T23:52:11.926Z,99.90
2019-05-30T23:54:38.317Z,99.90
2019-05-30T23:57:04.479Z,99.90
2019-05-30T23:59:30.652Z,99.90
